createdAt,value
2019-02-18T00:00:19.169Z,98.30
2019-02-18T00:02:48.294Z,98.20
2019-02-18T00:05:17.264Z,98.10
2019-02-18T00:07:46.282Z,98.10
2019-02-18T00:10:15.188Z,98.00
2019-02-18T00:12:44.144Z,98.20
2019-02-18T00:15:13.275Z,98.00
2019-02-18T00:17:42.219Z,98.10
2019-02-18T00:20:11.311Z,98.30
2019-02-18T00:22:40.269Z,98.70
2019-02-18T00:25:09.465Z,98.70
2019-02-18T00:27:38.395Z,98.90
2019-02-18T00:30:07.587Z,99.20
2019-02-18T00:32:36.532Z,99.30
2019-02-18T00:35:10.550Z,99.40
2019-02-18T00:37:39.524Z,99.40
2019-02-18T00:40:08.629Z,99.50
2019-02-18T00:42:37.624Z,99.60
2019-02-18T00:45:06.856Z,99.70
2019-02-18T00:47:35.807Z,99.80
2019-02-18T00:50:05.154Z,99.90
2019-02-18T00:52:34.105Z,99.90
2019-02-18T00:55:03.008Z,99.90
2019-02-18T00:57:31.992Z,99.90
2019-02-18T01:00:00.938Z,99.90
2019-02-18T01:02:29.930Z,99.90
2019-02-18T01:04:58.896Z,99.90
2019-02-18T01:07:34.504Z,99.90
2019-02-18T01:09:58.697Z,99.90
2019-02-18T01:12:27.682Z,99.90
2019-02-18T01:14:56.617Z,99.90
2019-02-18T01:17:25.559Z,99.90
2019-02-18T01:19:54.586Z,99.90
2019-02-18T01:22:23.754Z,99.90
2019-02-18T01:24:52.890Z,99.90
2019-02-18T01:27:21.991Z,99.90
2019-02-18T01:29:50.992Z,99.90
2019-02-18T01:32:20.088Z,99.90
2019-02-18T01:34:49.038Z,99.90
2019-02-18T01:37:18.040Z,99.90
2019-02-18T01:39:46.981Z,99.90
2019-02-18T01:42:16.059Z,99.90
2019-02-18T01:44:45.097Z,99.90
2019-02-18T01:47:14.119Z,99.90
2019-02-18T01:49:43.285Z,99.90
2019-02-18T01:52:12.220Z,99.90
2019-02-18T01:54:41.139Z,99.90
2019-02-18T01:57:10.135Z,99.90
2019-02-18T01:59:39.064Z,99.80
2019-02-18T02:02:08.001Z,99.70
2019-02-18T02:04:37.156Z,99.50
2019-02-18T02:07:06.080Z,99.50
2019-02-18T02:09:35.060Z,99.60
2019-02-18T02:12:04.182Z,99.70
2019-02-18T02:14:33.097Z,99.70
2019-02-18T02:17:02.048Z,99.90
2019-02-18T02:19:31.009Z,99.90
2019-02-18T02:21:59.945Z,99.90
2019-02-18T02:24:28.849Z,99.90
2019-02-18T02:26:57.815Z,99.90
2019-02-18T02:29:26.742Z,99.90
2019-02-18T02:31:55.754Z,99.90
2019-02-18T02:34:24.833Z,99.90
2019-02-18T02:36:53.836Z,99.90
2019-02-18T02:39:22.840Z,99.90
2019-02-18T02:41:51.919Z,99.90
2019-02-18T02:44:20.931Z,99.90
2019-02-18T02:46:49.890Z,99.90
2019-02-18T02:49:18.869Z,99.90
2019-02-18T02:51:47.789Z,99.90
2019-02-18T02:54:16.854Z,99.90
2019-02-18T02:56:45.858Z,99.90
2019-02-18T02:59:14.819Z,99.90
2019-02-18T03:01:43.764Z,99.90
2019-02-18T03:04:12.791Z,99.90
2019-02-18T03:06:41.695Z,99.90
2019-02-18T03:09:10.643Z,99.90
2019-02-18T03:11:39.636Z,99.90
2019-02-18T03:14:08.545Z,99.90
2019-02-18T03:16:37.473Z,99.90
2019-02-18T03:19:06.432Z,99.90
2019-02-18T03:21:35.476Z,99.90
2019-02-18T03:24:04.497Z,99.90
2019-02-18T03:26:33.447Z,99.90
2019-02-18T03:29:45.532Z,99.90
2019-02-18T03:32:14.579Z,99.90
2019-02-18T03:34:45.440Z,99.90
2019-02-18T03:37:14.395Z,99.90
2019-02-18T03:39:43.399Z,99.90
2019-02-18T03:42:12.664Z,99.90
2019-02-18T03:44:41.589Z,99.90
2019-02-18T03:47:10.542Z,99.90
2019-02-18T03:49:39.525Z,99.90
2019-02-18T03:52:08.467Z,99.90
2019-02-18T03:54:37.511Z,99.90
2019-02-18T03:57:06.492Z,99.90
2019-02-18T03:59:35.759Z,99.90
2019-02-18T04:02:04.774Z,99.90
2019-02-18T04:04:33.840Z,99.90
2019-02-18T04:07:02.878Z,99.90
2019-02-18T04:09:31.848Z,99.90
2019-02-18T04:12:00.836Z,99.90
2019-02-18T04:14:29.890Z,99.90
2019-02-18T04:16:58.946Z,99.90
2019-02-18T04:19:27.878Z,99.90
2019-02-18T04:21:56.816Z,99.90
2019-02-18T04:24:25.779Z,99.90
2019-02-18T04:26:54.743Z,99.90
2019-02-18T04:29:23.706Z,99.90
2019-02-18T04:31:52.710Z,99.90
2019-02-18T04:34:21.644Z,99.90
2019-02-18T04:36:50.555Z,99.90
2019-02-18T04:39:19.532Z,99.90
2019-02-18T04:41:48.528Z,99.90
2019-02-18T04:44:19.014Z,99.90
2019-02-18T04:46:48.007Z,99.90
2019-02-18T04:49:16.912Z,99.90
2019-02-18T04:51:45.880Z,99.90
2019-02-18T04:54:14.865Z,99.90
2019-02-18T04:56:43.849Z,99.90
2019-02-18T04:59:12.787Z,99.90
2019-02-18T05:01:41.747Z,99.90
2019-02-18T05:04:10.697Z,99.90
2019-02-18T05:06:39.625Z,99.90
2019-02-18T05:09:08.684Z,99.90
2019-02-18T05:11:37.585Z,99.90
2019-02-18T05:14:06.500Z,99.90
2019-02-18T05:16:35.543Z,99.90
2019-02-18T05:19:04.424Z,99.90
2019-02-18T05:21:33.346Z,99.90
2019-02-18T05:24:02.452Z,99.90
2019-02-18T05:26:31.573Z,99.90
2019-02-18T05:29:00.505Z,99.90
2019-02-18T05:31:29.458Z,99.90
2019-02-18T05:33:58.389Z,99.90
2019-02-18T05:36:27.339Z,99.90
2019-02-18T05:38:56.369Z,99.90
2019-02-18T05:41:25.317Z,99.90
2019-02-18T05:43:54.410Z,99.90
2019-02-18T05:46:23.526Z,99.90
2019-02-18T05:48:52.548Z,99.90
2019-02-18T05:51:21.516Z,99.90
2019-02-18T05:53:50.533Z,99.90
2019-02-18T05:56:19.433Z,99.90
2019-02-18T05:58:48.501Z,99.90
2019-02-18T06:01:19.222Z,99.90
2019-02-18T06:03:48.148Z,99.90
2019-02-18T06:06:17.131Z,99.90
2019-02-18T06:08:46.063Z,99.90
2019-02-18T06:11:15.109Z,99.90
2019-02-18T06:13:44.093Z,99.90
2019-02-18T06:16:13.035Z,99.90
2019-02-18T06:18:41.988Z,99.90
2019-02-18T06:21:10.946Z,99.90
2019-02-18T06:23:39.876Z,99.90
2019-02-18T06:26:08.816Z,99.90
2019-02-18T06:28:37.767Z,99.90
2019-02-18T06:31:08.109Z,99.90
2019-02-18T06:33:37.049Z,99.90
2019-02-18T06:36:06.146Z,99.90
2019-02-18T06:38:35.162Z,99.90
2019-02-18T06:41:04.077Z,99.90
2019-02-18T06:43:33.493Z,99.90
2019-02-18T06:46:08.653Z,99.90
2019-02-18T06:48:41.605Z,99.90
2019-02-18T06:51:10.588Z,99.90
2019-02-18T06:53:39.714Z,99.90
2019-02-18T06:56:08.835Z,99.90
2019-02-18T06:59:03.219Z,99.90
2019-02-18T07:01:48.348Z,99.90
2019-02-18T07:04:35.422Z,99.90
2019-02-18T07:07:29.132Z,99.90
2019-02-18T07:10:04.233Z,99.90
2019-02-18T07:12:36.247Z,99.90
2019-02-18T07:15:05.736Z,99.90
2019-02-18T07:17:34.692Z,99.90
2019-02-18T07:20:03.842Z,99.90
2019-02-18T07:22:32.835Z,99.90
2019-02-18T07:25:01.785Z,99.90
2019-02-18T07:27:30.739Z,99.90
2019-02-18T07:29:59.711Z,99.90
2019-02-18T07:32:28.715Z,99.60
2019-02-18T07:34:57.633Z,99.40
2019-02-18T07:37:26.559Z,99.30
2019-02-18T07:40:01.634Z,99.10
2019-02-18T07:42:26.128Z,98.90
2019-02-18T07:44:55.048Z,98.90
2019-02-18T07:47:24.128Z,98.60
2019-02-18T07:49:53.154Z,98.50
2019-02-18T07:52:23.448Z,98.50
2019-02-18T07:54:52.435Z,98.40
2019-02-18T07:57:21.472Z,98.30
2019-02-18T07:59:50.488Z,98.20
2019-02-18T08:02:19.463Z,98.10
2019-02-18T08:04:48.413Z,98.00
2019-02-18T08:07:17.369Z,97.80
2019-02-18T08:09:46.698Z,97.70
2019-02-18T08:12:15.635Z,97.70
2019-02-18T08:14:44.650Z,97.60
2019-02-18T08:17:13.665Z,97.60
2019-02-18T08:19:44.103Z,97.40
2019-02-18T08:22:13.041Z,97.10
2019-02-18T08:24:42.047Z,97.20
2019-02-18T08:27:11.051Z,97.00
2019-02-18T08:29:39.980Z,96.80
2019-02-18T08:32:10.774Z,96.60
2019-02-18T08:34:39.694Z,96.50
2019-02-18T08:37:09.362Z,96.30
2019-02-18T08:39:38.389Z,96.40
2019-02-18T08:42:07.296Z,96.40
2019-02-18T08:44:36.236Z,96.30
2019-02-18T08:47:05.268Z,96.10
2019-02-18T08:49:34.229Z,96.10
2019-02-18T08:52:03.246Z,96.00
2019-02-18T08:54:32.234Z,96.00
2019-02-18T08:57:01.219Z,95.80
2019-02-18T08:59:30.119Z,95.70
2019-02-18T09:01:59.112Z,95.60
2019-02-18T09:04:28.276Z,95.40
2019-02-18T09:06:57.248Z,95.30
2019-02-18T09:09:26.204Z,95.30
2019-02-18T09:11:55.292Z,95.20
2019-02-18T09:14:24.361Z,95.30
2019-02-18T09:16:53.384Z,95.40
2019-02-18T09:19:22.392Z,95.10
2019-02-18T09:21:58.278Z,95.00
2019-02-18T09:24:31.600Z,95.00
2019-02-18T09:27:00.515Z,95.00
2019-02-18T09:29:29.543Z,94.90
2019-02-18T09:31:58.499Z,94.90
2019-02-18T09:34:27.500Z,94.70
2019-02-18T09:36:56.569Z,94.80
2019-02-18T09:39:31.246Z,94.60
2019-02-18T09:41:56.275Z,94.40
2019-02-18T09:44:25.328Z,94.00
2019-02-18T09:46:54.296Z,94.00
2019-02-18T09:49:23.218Z,94.20
2019-02-18T09:51:52.214Z,93.60
2019-02-18T09:54:21.139Z,93.80
2019-02-18T09:56:50.134Z,93.60
2019-02-18T09:59:19.124Z,93.50
2019-02-18T10:01:48.081Z,93.30
2019-02-18T10:04:17.091Z,93.30
2019-02-18T10:06:46.107Z,93.10
2019-02-18T10:09:15.056Z,92.80
2019-02-18T10:11:44.065Z,92.60
2019-02-18T10:14:13.210Z,92.20
2019-02-18T10:16:42.247Z,92.30
2019-02-18T10:19:11.252Z,92.00
2019-02-18T10:21:40.328Z,92.00
2019-02-18T10:24:09.341Z,91.70
2019-02-18T10:26:38.381Z,91.80
2019-02-18T10:29:07.348Z,91.60
2019-02-18T10:31:38.197Z,91.70
2019-02-18T10:34:07.133Z,91.30
2019-02-18T10:36:36.111Z,90.90
2019-02-18T10:39:05.928Z,90.90
2019-02-18T10:41:34.880Z,90.70
2019-02-18T10:44:03.967Z,90.20
2019-02-18T10:46:32.920Z,90.20
2019-02-18T10:49:01.854Z,89.80
2019-02-18T10:51:30.822Z,90.00
2019-02-18T10:53:59.928Z,90.10
2019-02-18T10:56:29.332Z,89.40
2019-02-18T10:58:58.505Z,88.80
2019-02-18T11:01:27.421Z,88.50
2019-02-18T11:03:56.423Z,87.40
2019-02-18T11:06:25.407Z,87.50
2019-02-18T11:08:54.385Z,86.60
2019-02-18T11:11:23.416Z,86.30
2019-02-18T11:13:52.359Z,86.40
2019-02-18T11:16:21.269Z,85.30
2019-02-18T11:18:50.284Z,85.40
2019-02-18T11:21:19.336Z,85.40
2019-02-18T11:23:48.312Z,85.10
2019-02-18T11:26:17.368Z,84.80
2019-02-18T11:28:46.457Z,85.10
2019-02-18T11:31:15.468Z,85.40
2019-02-18T11:33:44.786Z,84.60
2019-02-18T11:36:13.817Z,84.10
2019-02-18T11:38:42.739Z,84.00
2019-02-18T11:41:11.745Z,83.50
2019-02-18T11:43:40.737Z,82.90
2019-02-18T11:46:09.790Z,82.00
2019-02-18T11:48:39.101Z,80.80
2019-02-18T11:51:08.179Z,79.50
2019-02-18T11:53:37.144Z,79.60
2019-02-18T11:56:06.108Z,80.60
2019-02-18T11:58:35.064Z,80.70
2019-02-18T12:01:04.131Z,81.00
2019-02-18T12:03:33.141Z,81.40
2019-02-18T12:06:02.123Z,79.80
2019-02-18T12:08:31.133Z,80.20
2019-02-18T12:11:00.318Z,81.20
2019-02-18T12:13:29.371Z,81.00
2019-02-18T12:15:58.391Z,80.70
2019-02-18T12:18:27.691Z,81.20
2019-02-18T12:20:56.679Z,80.20
2019-02-18T12:23:25.792Z,80.60
2019-02-18T12:25:54.780Z,80.00
2019-02-18T12:28:23.817Z,80.90
2019-02-18T12:30:52.796Z,80.10
2019-02-18T12:33:21.833Z,80.00
2019-02-18T12:35:50.856Z,80.00
2019-02-18T12:38:19.856Z,79.70
2019-02-18T12:40:48.923Z,79.60
2019-02-18T12:43:17.944Z,79.60
2019-02-18T12:45:46.935Z,79.20
2019-02-18T12:48:16.333Z,78.80
2019-02-18T12:50:45.471Z,79.30
2019-02-18T12:53:14.468Z,79.20
2019-02-18T12:55:43.501Z,79.40
2019-02-18T12:58:12.613Z,79.20
2019-02-18T13:00:41.748Z,79.70
2019-02-18T13:03:10.836Z,79.60
2019-02-18T13:05:39.960Z,79.00
2019-02-18T13:08:09.052Z,78.90
2019-02-18T13:10:38.157Z,78.20
2019-02-18T13:13:07.213Z,77.30
2019-02-18T13:15:36.255Z,78.00
2019-02-18T13:20:34.240Z,76.30
2019-02-18T13:23:03.223Z,76.70
2019-02-18T13:25:32.469Z,73.20
2019-02-18T13:28:08.349Z,71.80
2019-02-18T13:30:32.092Z,72.10
2019-02-18T13:33:01.108Z,71.30
2019-02-18T13:35:30.224Z,71.20
2019-02-18T13:38:00.159Z,70.30
2019-02-18T13:40:29.317Z,69.20
2019-02-18T13:42:58.360Z,70.30
2019-02-18T13:45:27.287Z,71.20
2019-02-18T13:47:56.456Z,72.40
2019-02-18T13:50:25.601Z,70.90
2019-02-18T13:52:54.685Z,69.70
2019-02-18T13:55:24.048Z,70.40
2019-02-18T13:57:53.054Z,70.90
2019-02-18T14:00:22.220Z,71.70
2019-02-18T14:02:51.448Z,71.70
2019-02-18T14:05:20.853Z,72.30
2019-02-18T14:07:50.070Z,73.00
2019-02-18T14:10:19.701Z,73.20
2019-02-18T14:12:48.901Z,73.50
2019-02-18T14:15:18.053Z,73.10
2019-02-18T14:17:50.701Z,73.50
2019-02-18T14:20:19.965Z,71.70
2019-02-18T14:22:49.051Z,71.10
2019-02-18T14:25:18.120Z,71.80
2019-02-18T14:27:47.209Z,71.00
2019-02-18T14:30:16.482Z,70.70
2019-02-18T14:32:45.955Z,70.00
2019-02-18T14:35:16.463Z,70.00
2019-02-18T14:37:45.747Z,70.50
2019-02-18T14:40:16.364Z,71.20
2019-02-18T14:42:45.742Z,71.50
2019-02-18T14:45:15.394Z,72.00
2019-02-18T14:47:44.544Z,72.00
2019-02-18T14:50:16.134Z,72.20
2019-02-18T14:52:45.618Z,72.40
2019-02-18T14:55:14.971Z,72.50
2019-02-18T14:57:44.017Z,73.10
2019-02-18T15:00:20.336Z,73.40
2019-02-18T15:02:50.372Z,73.40
2019-02-18T15:05:19.518Z,72.60
2019-02-18T15:07:48.547Z,70.60
2019-02-18T15:10:17.650Z,69.90
2019-02-18T15:12:46.810Z,69.30
2019-02-18T15:15:16.507Z,69.00
2019-02-18T15:17:45.589Z,69.00
2019-02-18T15:20:14.699Z,68.90
2019-02-18T15:22:43.710Z,69.20
2019-02-18T15:25:13.156Z,69.20
2019-02-18T15:27:42.225Z,69.50
2019-02-18T15:30:12.553Z,70.30
2019-02-18T15:32:41.658Z,71.00
2019-02-18T15:35:10.869Z,71.80
2019-02-18T15:37:40.028Z,71.90
2019-02-18T15:40:10.065Z,72.40
2019-02-18T15:42:42.334Z,72.30
2019-02-18T15:45:10.123Z,71.90
2019-02-18T15:47:39.313Z,72.60
2019-02-18T15:50:09.837Z,72.60
2019-02-18T15:52:38.941Z,73.20
2019-02-18T15:55:08.272Z,73.40
2019-02-18T15:57:37.419Z,73.60
2019-02-18T16:00:08.828Z,74.10
2019-02-18T16:02:37.961Z,74.50
2019-02-18T16:05:07.579Z,74.50
2019-02-18T16:07:36.748Z,74.70
2019-02-18T16:10:06.291Z,75.20
2019-02-18T16:12:35.450Z,75.70
2019-02-18T16:15:05.167Z,76.30
2019-02-18T16:17:34.399Z,76.90
2019-02-18T16:20:04.776Z,77.40
2019-02-18T16:22:33.813Z,78.10
2019-02-18T16:25:02.980Z,78.50
2019-02-18T16:27:31.951Z,79.00
2019-02-18T16:30:03.917Z,79.60
2019-02-18T16:32:35.776Z,80.40
2019-02-18T16:35:05.075Z,81.00
2019-02-18T16:37:34.516Z,82.10
2019-02-18T16:40:03.733Z,82.50
2019-02-18T16:42:32.843Z,83.10
2019-02-18T16:45:02.296Z,83.50
2019-02-18T16:47:31.354Z,85.40
2019-02-18T16:50:00.340Z,85.40
2019-02-18T16:52:29.322Z,85.70
2019-02-18T16:54:58.436Z,86.30
2019-02-18T16:57:27.505Z,87.10
2019-02-18T16:59:56.532Z,87.90
2019-02-18T17:02:27.013Z,88.50
2019-02-18T17:04:56.070Z,89.20
2019-02-18T17:07:25.075Z,89.30
2019-02-18T17:09:54.139Z,90.00
2019-02-18T17:12:23.232Z,90.30
2019-02-18T17:14:52.255Z,90.40
2019-02-18T17:17:21.685Z,90.60
2019-02-18T17:19:50.793Z,90.70
2019-02-18T17:22:19.800Z,90.80
2019-02-18T17:24:48.853Z,91.10
2019-02-18T17:27:17.851Z,91.20
2019-02-18T17:29:47.040Z,91.40
2019-02-18T17:32:16.035Z,91.50
2019-02-18T17:34:45.031Z,91.70
2019-02-18T17:37:14.048Z,91.80
2019-02-18T17:39:43.107Z,92.00
2019-02-18T17:42:13.420Z,92.00
2019-02-18T17:44:42.461Z,92.30
2019-02-18T17:47:11.507Z,92.20
2019-02-18T17:49:40.808Z,92.30
2019-02-18T17:52:09.827Z,92.40
2019-02-18T17:54:38.867Z,92.60
2019-02-18T17:57:07.950Z,92.60
2019-02-18T17:59:36.979Z,92.60
2019-02-18T18:02:06.198Z,92.90
2019-02-18T18:04:35.647Z,93.00
2019-02-18T18:07:04.653Z,93.10
2019-02-18T18:09:33.720Z,93.10
2019-02-18T18:12:03.968Z,93.30
2019-02-18T18:14:32.928Z,93.30
2019-02-18T18:17:19.481Z,93.30
2019-02-18T18:19:48.517Z,93.50
2019-02-18T18:22:17.645Z,94.10
2019-02-18T18:24:47.023Z,93.90
2019-02-18T18:27:16.023Z,94.00
2019-02-18T18:29:45.147Z,94.20
2019-02-18T18:32:14.288Z,94.30
2019-02-18T18:34:43.337Z,94.50
2019-02-18T18:37:12.382Z,94.70
2019-02-18T18:39:41.427Z,94.40
2019-02-18T18:42:10.399Z,94.70
2019-02-18T18:44:39.440Z,94.80
2019-02-18T18:47:08.505Z,94.90
2019-02-18T18:49:37.517Z,95.00
2019-02-18T18:52:06.597Z,95.20
2019-02-18T18:54:35.583Z,95.20
2019-02-18T18:57:04.727Z,95.30
2019-02-18T18:59:34.227Z,95.30
2019-02-18T19:02:03.196Z,95.40
2019-02-18T19:04:32.180Z,95.50
2019-02-18T19:07:01.850Z,95.60
2019-02-18T19:09:30.950Z,95.60
2019-02-18T19:12:00.076Z,95.70
2019-02-18T19:14:29.372Z,95.80
2019-02-18T19:16:58.395Z,95.70
2019-02-18T19:19:27.519Z,95.70
2019-02-18T19:21:56.480Z,95.70
2019-02-18T19:24:25.477Z,95.70
2019-02-18T19:26:54.597Z,95.70
2019-02-18T19:29:23.890Z,95.80
2019-02-18T19:31:53.130Z,96.00
2019-02-18T19:34:22.097Z,95.80
2019-02-18T19:36:51.040Z,95.60
2019-02-18T19:39:20.202Z,95.60
2019-02-18T19:41:49.297Z,95.70
2019-02-18T19:44:19.911Z,95.70
2019-02-18T19:46:49.135Z,95.70
2019-02-18T19:49:18.302Z,95.80
2019-02-18T19:51:47.405Z,96.00
2019-02-18T19:54:16.505Z,95.80
2019-02-18T19:56:45.591Z,95.90
2019-02-18T19:59:17.969Z,96.20
2019-02-18T20:01:47.119Z,96.20
2019-02-18T20:04:16.210Z,96.10
2019-02-18T20:06:45.342Z,95.90
2019-02-18T20:09:15.648Z,95.90
2019-02-18T20:11:45.023Z,95.70
2019-02-18T20:14:14.053Z,95.70
2019-02-18T20:16:42.997Z,95.40
2019-02-18T20:19:12.020Z,95.30
2019-02-18T20:21:40.947Z,95.30
2019-02-18T20:24:10.067Z,95.20
2019-02-18T20:26:39.452Z,95.10
2019-02-18T20:29:08.449Z,95.10
2019-02-18T20:31:37.622Z,95.20
2019-02-18T20:34:06.680Z,95.20
2019-02-18T20:36:35.802Z,95.30
2019-02-18T20:39:07.282Z,95.40
2019-02-18T20:41:36.373Z,95.50
2019-02-18T20:44:07.570Z,96.10
2019-02-18T20:46:36.169Z,96.10
2019-02-18T20:49:05.198Z,96.10
2019-02-18T20:51:34.432Z,95.90
2019-02-18T20:54:03.644Z,95.80
2019-02-18T20:56:32.820Z,96.10
2019-02-18T20:59:01.964Z,96.10
2019-02-18T21:01:31.016Z,96.00
2019-02-18T21:04:00.051Z,95.90
2019-02-18T21:06:29.083Z,96.20
2019-02-18T21:08:58.148Z,96.30
2019-02-18T21:11:27.165Z,96.40
2019-02-18T21:13:56.191Z,96.30
2019-02-18T21:16:25.260Z,96.30
2019-02-18T21:18:56.232Z,96.50
2019-02-18T21:21:24.924Z,96.70
2019-02-18T21:24:01.895Z,96.20
2019-02-18T21:26:30.919Z,96.00
2019-02-18T21:29:00.087Z,96.10
2019-02-18T21:31:36.797Z,96.00
2019-02-18T21:34:05.874Z,96.10
2019-02-18T21:36:35.226Z,96.10
2019-02-18T21:39:06.957Z,96.20
2019-02-18T21:41:36.088Z,96.30
2019-02-18T21:44:05.097Z,96.10
2019-02-18T21:46:34.103Z,96.10
2019-02-18T21:49:03.136Z,96.40
2019-02-18T21:51:32.433Z,96.20
2019-02-18T21:54:01.470Z,96.20
2019-02-18T21:56:30.482Z,96.10
2019-02-18T21:58:59.522Z,96.00
2019-02-18T22:01:28.579Z,95.90
2019-02-18T22:03:57.645Z,95.90
2019-02-18T22:06:26.917Z,95.90
2019-02-18T22:08:55.963Z,96.30
2019-02-18T22:11:27.622Z,96.20
2019-02-18T22:13:56.759Z,96.40
2019-02-18T22:16:27.242Z,96.30
2019-02-18T22:18:56.210Z,96.40
2019-02-18T22:21:25.705Z,96.60
2019-02-18T22:23:54.898Z,96.80
2019-02-18T22:26:23.879Z,96.90
2019-02-18T22:28:52.851Z,97.20
2019-02-18T22:31:22.059Z,97.40
2019-02-18T22:33:51.139Z,97.70
2019-02-18T22:36:20.227Z,97.90
2019-02-18T22:38:49.328Z,98.20
2019-02-18T22:41:18.405Z,98.20
2019-02-18T22:43:47.432Z,98.20
2019-02-18T22:46:16.451Z,98.20
2019-02-18T22:48:45.558Z,97.70
2019-02-18T22:51:14.569Z,97.60
2019-02-18T22:53:43.779Z,97.30
2019-02-18T22:56:12.831Z,97.20
2019-02-18T22:58:41.881Z,97.20
2019-02-18T23:01:11.670Z,97.40
2019-02-18T23:03:40.886Z,97.50
2019-02-18T23:06:09.975Z,97.60
2019-02-18T23:08:39.481Z,97.80
2019-02-18T23:11:08.527Z,98.00
2019-02-18T23:13:38.708Z,98.20
2019-02-18T23:16:07.812Z,98.20
2019-02-18T23:18:36.879Z,98.20
2019-02-18T23:21:05.976Z,98.40
2019-02-18T23:23:34.997Z,98.40
2019-02-18T23:26:04.055Z,98.40
2019-02-18T23:28:33.055Z,98.50
2019-02-18T23:31:02.462Z,98.60
2019-02-18T23:33:31.533Z,98.50
2019-02-18T23:36:00.651Z,98.50
2019-02-18T23:38:29.728Z,98.60
2019-02-18T23:40:58.964Z,98.70
2019-02-18T23:43:28.665Z,98.70
2019-02-18T23:45:57.670Z,98.80
2019-02-18T23:48:26.691Z,98.70
2019-02-18T23:50:55.730Z,98.80
2019-02-18T23:53:24.803Z,98.80
2019-02-18T23:55:53.953Z,98.70
2019-02-18T23:58:22.964Z,98.60
